Elliston, Montana
Current Conditions -  °F | °C
As of 5:53 AM on Friday 24 Oct 2014 (Local Time) from KHLN Reporting Station
Overcast Overcast  
Wind Chill: 46°   Ceiling: 8000
Heat Index: 48°   Visibility: 10mi
Dew Point: 39°   Wind: 5mph
Humidity: 71%   Direction: 10°N
Pressure: 30.02"   Gusts: NA
Location:  46.55°N, 112.44°W
Report Text: KHLN 241153Z 01004KT 10SM OVC080 09/04 A3002 RMK AO2 SLP172 T00890039 10111 20083 53013
Loading
Personal Weather Stations






























Interactive Weather Map
Tropical Storm Tracking
New forecast layout! Learn more

10-Day Weather Forecast

Advertisements
Track Severe Weather on mobile